Terminal Aerodrome Forecast
Issued by NWS

Home | Current Version | Previous Version | Graphics & Text | Print | Product List | Glossary On
Versions: 1 2 3 4 5 6 7 8 9 10 11 12 13 14 15 16 17 18 19 20 21 22 23 24 25 26 27
416
FTUS43 KLOT 230850 AAB
TAFORD
TAF AMD
KORD 230850Z 2309/2412 20012G20KT P6SM VCSH OVC015
     FM231000 20012G20KT P6SM -SHRA BKN012 OVC050
      TEMPO 2310/2312 35012G25KT 2SM -TSRA BKN015CB BKN050
     FM231200 36011KT P6SM VCSH BKN012 BKN050
     FM231400 35010KT P6SM SCT020 BKN035
     FM231800 33011G18KT P6SM SCT035 BKN200
     FM240100 30011KT P6SM SCT250=

USA.gov is the U.S. government's official web portal to all federal, state and local government web resources and services.